createdAt,value
2023-01-09T00:01:32.761Z,5.67
2023-01-09T00:04:00.839Z,5.62
2023-01-09T00:06:29.088Z,5.60
2023-01-09T00:08:57.272Z,5.55
2023-01-09T00:11:25.374Z,5.56
2023-01-09T00:13:53.458Z,5.59
2023-01-09T00:16:22.891Z,5.55
2023-01-09T00:18:51.063Z,5.56
2023-01-09T00:21:19.068Z,5.57
2023-01-09T00:23:48.097Z,5.56
2023-01-09T00:26:17.758Z,5.56
2023-01-09T00:28:46.151Z,5.53
2023-01-09T00:31:14.378Z,5.53
2023-01-09T00:33:45.804Z,5.52
2023-01-09T00:36:13.947Z,5.53
2023-01-09T00:38:42.126Z,5.53
2023-01-09T00:41:13.082Z,5.47
2023-01-09T00:43:45.669Z,5.46
2023-01-09T00:46:14.815Z,5.43
2023-01-09T00:48:46.561Z,5.39
2023-01-09T00:51:14.867Z,5.39
2023-01-09T00:53:43.994Z,5.38
2023-01-09T00:56:15.885Z,5.38
2023-01-09T00:58:44.094Z,5.42
2023-01-09T01:01:12.335Z,5.42
2023-01-09T01:03:40.604Z,5.46
2023-01-09T01:06:27.487Z,5.42
2023-01-09T01:08:56.741Z,5.35
2023-01-09T01:11:24.912Z,5.24
2023-01-09T01:13:53.172Z,5.19
2023-01-09T01:16:21.220Z,5.14
2023-01-09T01:18:49.306Z,5.11
2023-01-09T01:21:19.113Z,5.07
2023-01-09T01:23:47.133Z,5.01
2023-01-09T01:26:16.874Z,4.99
2023-01-09T01:28:45.280Z,4.94
2023-01-09T01:31:17.645Z,4.89
2023-01-09T01:33:45.680Z,4.87
2023-01-09T01:36:16.312Z,4.87
2023-01-09T01:38:46.859Z,4.81
2023-01-09T01:41:29.219Z,4.83
2023-01-09T01:43:57.987Z,4.78
2023-01-09T01:46:26.092Z,4.77
2023-01-09T01:48:56.181Z,4.74
2023-01-09T01:51:26.269Z,4.68
2023-01-09T01:53:58.925Z,4.66
2023-01-09T01:56:30.113Z,4.59
2023-01-09T01:59:03.092Z,4.54
2023-01-09T02:01:32.967Z,4.52
2023-01-09T02:04:02.935Z,4.50
2023-01-09T02:06:31.804Z,4.47
2023-01-09T02:09:01.941Z,4.42
2023-01-09T02:11:30.116Z,4.40
2023-01-09T02:13:58.703Z,4.40
2023-01-09T02:16:37.784Z,4.36
2023-01-09T02:19:12.583Z,4.33
2023-01-09T02:21:49.714Z,4.30
2023-01-09T02:24:50.589Z,4.30
2023-01-09T02:27:40.877Z,4.32
2023-01-09T02:30:27.401Z,4.35
2023-01-09T02:33:02.746Z,4.36
2023-01-09T02:35:41.502Z,4.38
2023-01-09T02:38:16.191Z,4.38
2023-01-09T02:40:49.062Z,4.39
2023-01-09T02:43:17.284Z,4.36
2023-01-09T02:45:46.725Z,4.36
2023-01-09T02:48:15.061Z,4.38
2023-01-09T02:50:47.466Z,4.38
2023-01-09T02:53:52.070Z,4.39
2023-01-09T02:56:28.857Z,4.36
2023-01-09T02:59:11.818Z,4.28
2023-01-09T03:01:46.451Z,4.28
2023-01-09T03:04:21.425Z,4.30
2023-01-09T03:06:54.735Z,4.29
2023-01-09T03:09:25.869Z,4.28
2023-01-09T03:11:57.222Z,4.28
2023-01-09T03:14:27.356Z,4.30
2023-01-09T03:16:58.198Z,4.32
2023-01-09T03:19:28.341Z,4.35
2023-01-09T03:21:56.400Z,4.36
2023-01-09T03:24:24.671Z,4.39
2023-01-09T03:26:54.306Z,4.39
2023-01-09T03:29:22.702Z,4.39
2023-01-09T03:31:51.077Z,4.40
2023-01-09T03:34:20.786Z,4.39
2023-01-09T03:36:49.067Z,4.42
2023-01-09T03:39:17.213Z,4.42
2023-01-09T03:41:45.531Z,4.43
2023-01-09T03:44:13.502Z,4.43
2023-01-09T03:46:41.573Z,4.46
2023-01-09T03:49:09.648Z,4.43
2023-01-09T03:51:38.959Z,4.46
2023-01-09T03:54:07.065Z,4.45
2023-01-09T03:56:35.120Z,4.42
2023-01-09T03:59:03.308Z,4.40
2023-01-09T04:01:31.410Z,4.46
2023-01-09T04:03:59.479Z,4.45
2023-01-09T04:06:27.525Z,4.47
2023-01-09T04:08:56.850Z,4.49
2023-01-09T04:11:25.012Z,4.50
2023-01-09T04:13:53.083Z,4.47
2023-01-09T04:16:21.217Z,4.52
2023-01-09T04:18:49.263Z,4.54
2023-01-09T04:21:17.415Z,4.56
2023-01-09T04:23:45.711Z,4.57
2023-01-09T04:26:15.386Z,4.60
2023-01-09T04:28:43.550Z,4.63
2023-01-09T04:31:11.770Z,4.63
2023-01-09T04:33:39.846Z,4.59
2023-01-09T04:36:08.744Z,4.61
2023-01-09T04:38:36.809Z,4.61
2023-01-09T04:41:04.821Z,4.60
2023-01-09T04:43:34.199Z,4.63
2023-01-09T04:46:02.997Z,4.64
2023-01-09T04:48:31.026Z,4.67
2023-01-09T04:50:58.991Z,4.66
2023-01-09T04:53:27.329Z,4.68
2023-01-09T04:55:55.393Z,4.67
2023-01-09T04:58:23.351Z,4.70
2023-01-09T05:00:52.789Z,4.68
2023-01-09T05:03:20.971Z,4.70
2023-01-09T05:05:49.047Z,4.73
2023-01-09T05:08:17.033Z,4.73
2023-01-09T05:10:45.086Z,4.73
2023-01-09T05:13:13.143Z,4.68
2023-01-09T05:15:41.122Z,4.71
2023-01-09T05:18:10.539Z,4.71
2023-01-09T05:20:38.596Z,4.76
2023-01-09T05:23:06.668Z,4.80
2023-01-09T05:25:34.773Z,4.80
2023-01-09T05:28:02.800Z,4.84
2023-01-09T05:30:31.842Z,4.88
2023-01-09T05:33:00.155Z,4.94
2023-01-09T05:35:30.155Z,5.03
2023-01-09T05:37:58.329Z,5.08
2023-01-09T05:40:32.088Z,5.12
2023-01-09T05:43:00.500Z,5.22
2023-01-09T05:45:28.672Z,5.25
2023-01-09T05:47:57.449Z,5.29
2023-01-09T05:50:25.533Z,5.29
2023-01-09T05:52:55.031Z,5.32
2023-01-09T05:55:23.112Z,5.34
2023-01-09T05:57:51.483Z,5.34
2023-01-09T06:00:20.791Z,5.34
2023-01-09T06:02:48.981Z,5.34
2023-01-09T06:05:17.417Z,5.35
2023-01-09T06:07:45.448Z,5.35
2023-01-09T06:10:16.132Z,5.35
2023-01-09T06:12:48.110Z,5.35
2023-01-09T06:15:16.699Z,5.38
2023-01-09T06:17:45.173Z,5.40
2023-01-09T06:20:13.386Z,5.42
2023-01-09T06:22:41.836Z,5.40
2023-01-09T06:25:10.757Z,5.43
2023-01-09T06:27:40.408Z,5.42
2023-01-09T06:30:10.017Z,5.45
2023-01-09T06:32:38.111Z,5.38
2023-01-09T06:35:06.868Z,5.34
2023-01-09T06:37:34.927Z,5.32
2023-01-09T06:40:03.493Z,5.28
2023-01-09T06:42:31.818Z,5.28
2023-01-09T06:45:01.374Z,5.22
2023-01-09T06:47:29.679Z,5.25
2023-01-09T06:49:58.210Z,5.21
2023-01-09T06:52:26.371Z,5.21
2023-01-09T06:54:54.662Z,5.21
2023-01-09T06:57:22.908Z,5.21
2023-01-09T06:59:50.959Z,5.21
2023-01-09T07:02:22.492Z,5.22
2023-01-09T07:04:50.676Z,5.22
2023-01-09T07:07:19.836Z,5.24
2023-01-09T07:09:47.820Z,5.25
2023-01-09T07:12:16.230Z,5.26
2023-01-09T07:14:44.864Z,5.25
2023-01-09T07:17:13.828Z,5.25
2023-01-09T07:19:43.151Z,5.26
2023-01-09T07:22:11.689Z,5.26
2023-01-09T07:24:39.796Z,5.24
2023-01-09T07:27:07.875Z,5.26
2023-01-09T07:29:35.943Z,5.24
2023-01-09T07:32:04.508Z,5.31
2023-01-09T07:34:32.600Z,5.28
2023-01-09T07:37:03.342Z,5.31
2023-01-09T07:39:31.397Z,5.31
2023-01-09T07:41:59.432Z,5.35
2023-01-09T07:44:27.468Z,5.38
2023-01-09T07:46:55.775Z,5.35
2023-01-09T07:49:26.028Z,5.35
2023-01-09T07:51:54.815Z,5.38
2023-01-09T07:54:24.209Z,5.39
2023-01-09T07:56:52.405Z,5.35
2023-01-09T07:59:20.723Z,5.42
2023-01-09T08:01:49.140Z,5.42
2023-01-09T08:04:17.531Z,5.45
2023-01-09T08:06:45.665Z,5.45
2023-01-09T08:09:14.142Z,5.45
2023-01-09T08:11:43.638Z,5.45
2023-01-09T08:14:11.903Z,5.50
2023-01-09T08:16:40.292Z,5.53
2023-01-09T08:19:12.062Z,5.57
2023-01-09T08:21:40.741Z,5.59
2023-01-09T08:24:10.174Z,5.62
2023-01-09T08:26:40.505Z,5.65
2023-01-09T08:29:10.169Z,5.69
2023-01-09T08:31:38.292Z,5.71
2023-01-09T08:34:06.569Z,5.74
2023-01-09T08:36:34.634Z,5.76
2023-01-09T08:39:02.714Z,5.82
2023-01-09T08:41:47.958Z,5.80
2023-01-09T08:44:35.249Z,5.82
2023-01-09T08:47:07.306Z,5.86
2023-01-09T08:49:37.164Z,5.89
2023-01-09T08:52:05.758Z,5.94
2023-01-09T08:54:33.851Z,5.97
2023-01-09T08:57:01.906Z,6.00
2023-01-09T08:59:31.711Z,6.01
2023-01-09T09:02:00.176Z,6.05
2023-01-09T09:04:28.372Z,6.10
2023-01-09T09:06:56.394Z,6.10
2023-01-09T09:09:25.757Z,6.14
2023-01-09T09:11:53.916Z,6.17
2023-01-09T09:14:39.569Z,6.21
2023-01-09T09:17:09.145Z,6.25
2023-01-09T09:19:37.176Z,6.26
2023-01-09T09:22:05.288Z,6.34
2023-01-09T09:24:33.317Z,6.35
2023-01-09T09:27:01.347Z,6.39
2023-01-09T09:29:29.356Z,6.45
2023-01-09T09:31:59.407Z,6.49
2023-01-09T09:34:30.675Z,6.52
2023-01-09T09:36:58.771Z,6.56
2023-01-09T09:39:26.896Z,6.57
2023-01-09T09:42:40.046Z,6.61
2023-01-09T09:45:17.667Z,6.72
2023-01-09T09:47:51.975Z,6.75
2023-01-09T09:50:40.076Z,6.79
2023-01-09T09:53:11.675Z,6.80
2023-01-09T09:55:43.447Z,6.84
2023-01-09T09:58:17.391Z,6.90
2023-01-09T10:00:45.862Z,6.92
2023-01-09T10:03:33.005Z,6.96
2023-01-09T10:06:05.624Z,7.05
2023-01-09T10:08:38.751Z,7.14
2023-01-09T10:11:10.759Z,7.23
2023-01-09T10:13:56.751Z,7.35
2023-01-09T10:16:36.584Z,7.42
2023-01-09T10:19:16.124Z,7.48
2023-01-09T10:21:50.989Z,7.47
2023-01-09T10:24:28.817Z,7.51
2023-01-09T10:26:57.611Z,7.52
2023-01-09T10:29:41.589Z,7.55
2023-01-09T10:32:40.435Z,7.54
2023-01-09T10:35:25.461Z,7.52
2023-01-09T10:37:55.536Z,7.56
2023-01-09T10:40:27.881Z,7.66
2023-01-09T10:42:57.424Z,7.68
2023-01-09T10:45:27.006Z,7.68
2023-01-09T10:48:00.942Z,7.68
2023-01-09T10:50:34.490Z,7.65
2023-01-09T10:53:13.970Z,7.62
2023-01-09T10:55:44.751Z,7.61
2023-01-09T10:58:13.920Z,7.61
2023-01-09T11:00:42.573Z,7.63
2023-01-09T11:03:13.164Z,7.61
2023-01-09T11:05:44.377Z,7.61
2023-01-09T11:08:19.937Z,7.63
2023-01-09T11:10:50.164Z,7.65
2023-01-09T11:13:21.656Z,7.72
2023-01-09T11:16:01.261Z,7.72
2023-01-09T11:18:30.097Z,7.71
2023-01-09T11:21:13.904Z,7.68
2023-01-09T11:23:43.684Z,7.72
2023-01-09T11:26:24.939Z,7.75
2023-01-09T11:29:10.998Z,7.82
2023-01-09T11:31:40.244Z,7.83
2023-01-09T11:34:16.843Z,7.94
2023-01-09T11:36:45.472Z,7.97
2023-01-09T11:39:23.424Z,7.99
2023-01-09T11:41:54.610Z,7.99
2023-01-09T11:44:23.470Z,8.02
2023-01-09T11:46:51.998Z,7.99
2023-01-09T11:49:24.940Z,8.07
2023-01-09T11:52:13.486Z,8.07
2023-01-09T11:54:46.601Z,8.10
2023-01-09T11:57:14.691Z,8.11
2023-01-09T11:59:42.783Z,8.17
2023-01-09T12:02:42.542Z,8.24
2023-01-09T12:05:19.427Z,8.26
2023-01-09T12:08:07.778Z,8.24
2023-01-09T12:10:47.770Z,8.17
2023-01-09T12:13:25.599Z,8.13
2023-01-09T12:16:02.773Z,8.10
2023-01-09T12:18:42.314Z,8.14
2023-01-09T12:21:23.192Z,8.24
2023-01-09T12:24:04.619Z,8.42
2023-01-09T12:26:35.050Z,8.64
2023-01-09T12:29:15.930Z,8.79
2023-01-09T12:32:00.530Z,8.90
2023-01-09T12:34:39.155Z,8.95
2023-01-09T12:37:28.374Z,8.90
2023-01-09T12:40:03.245Z,8.83
2023-01-09T12:42:41.880Z,8.79
2023-01-09T12:45:27.999Z,8.69
2023-01-09T12:48:01.201Z,8.57
2023-01-09T12:50:56.065Z,8.47
2023-01-09T12:53:26.989Z,8.48
2023-01-09T12:56:06.169Z,8.48
2023-01-09T12:58:41.943Z,8.48
2023-01-09T13:01:15.023Z,8.47
2023-01-09T13:03:47.726Z,8.52
2023-01-09T13:06:18.129Z,8.52
2023-01-09T13:08:49.729Z,8.61
2023-01-09T13:11:22.241Z,8.62
2023-01-09T13:13:56.661Z,8.68
2023-01-09T13:16:29.191Z,8.64
2023-01-09T13:19:03.111Z,8.61
2023-01-09T13:21:34.789Z,8.60
2023-01-09T13:24:06.922Z,8.57
2023-01-09T13:26:39.122Z,8.50
2023-01-09T13:29:16.400Z,8.41
2023-01-09T13:32:05.713Z,8.34
2023-01-09T13:34:36.358Z,8.27
2023-01-09T13:37:05.392Z,8.19
2023-01-09T13:39:38.017Z,8.16
2023-01-09T13:42:26.144Z,8.16
2023-01-09T13:44:57.328Z,8.11
2023-01-09T13:47:28.841Z,8.14
2023-01-09T13:50:30.152Z,8.19
2023-01-09T13:53:00.812Z,8.17
2023-01-09T13:55:36.301Z,8.20
2023-01-09T13:58:27.497Z,8.21
2023-01-09T14:01:00.264Z,8.23
2023-01-09T14:03:34.008Z,8.24
2023-01-09T14:06:20.056Z,8.21
2023-01-09T14:08:52.104Z,8.20
2023-01-09T14:11:29.087Z,8.23
2023-01-09T14:14:09.179Z,8.24
2023-01-09T14:16:39.443Z,8.23
2023-01-09T14:19:22.467Z,8.24
2023-01-09T14:21:54.642Z,8.26
2023-01-09T14:24:26.649Z,8.27
2023-01-09T14:26:57.783Z,8.30
2023-01-09T14:29:47.880Z,8.33
2023-01-09T14:32:43.462Z,8.37
2023-01-09T14:35:39.645Z,8.31
2023-01-09T14:38:20.263Z,8.23
2023-01-09T14:40:55.597Z,8.11
2023-01-09T14:43:33.089Z,7.99
2023-01-09T14:46:06.233Z,7.92
2023-01-09T14:48:37.186Z,7.85
2023-01-09T14:51:08.694Z,7.81
2023-01-09T14:53:39.655Z,7.75
2023-01-09T14:56:15.093Z,7.75
2023-01-09T14:58:43.688Z,7.72
2023-01-09T15:01:18.875Z,7.75
2023-01-09T15:03:50.876Z,7.72
2023-01-09T15:06:21.032Z,7.75
2023-01-09T15:08:52.499Z,7.72
2023-01-09T15:11:20.825Z,7.71
2023-01-09T15:13:54.867Z,7.72
2023-01-09T15:16:25.547Z,7.69
2023-01-09T15:18:58.457Z,7.71
2023-01-09T15:21:31.213Z,7.69
2023-01-09T15:24:13.011Z,7.69
2023-01-09T15:26:41.161Z,7.68
2023-01-09T15:29:20.549Z,7.66
2023-01-09T15:31:52.419Z,7.63
2023-01-09T15:34:27.330Z,7.62
2023-01-09T15:36:57.576Z,7.59
2023-01-09T15:39:28.273Z,7.58
2023-01-09T15:42:14.757Z,7.55
2023-01-09T15:44:44.938Z,7.50
2023-01-09T15:47:18.617Z,7.42
2023-01-09T15:49:48.489Z,7.38
2023-01-09T15:52:19.407Z,7.27
2023-01-09T15:54:49.208Z,7.15
2023-01-09T15:57:35.627Z,7.10
2023-01-09T16:00:35.749Z,7.04
2023-01-09T16:03:12.761Z,7.00
2023-01-09T16:05:43.136Z,6.97
2023-01-09T16:08:22.232Z,6.90
2023-01-09T16:10:53.151Z,6.87
2023-01-09T16:13:24.309Z,6.77
2023-01-09T16:15:54.217Z,6.69
2023-01-09T16:18:29.623Z,6.61
2023-01-09T16:21:24.459Z,6.61
2023-01-09T16:23:58.754Z,6.55
2023-01-09T16:26:29.766Z,6.50
2023-01-09T16:28:58.593Z,6.48
2023-01-09T16:31:30.659Z,6.39
2023-01-09T16:34:00.846Z,6.38
2023-01-09T16:36:30.502Z,6.35
2023-01-09T16:39:00.830Z,6.28
2023-01-09T16:41:46.537Z,6.29
2023-01-09T16:44:14.805Z,6.31
2023-01-09T16:46:44.870Z,6.31
2023-01-09T16:49:18.580Z,6.31
2023-01-09T16:51:48.911Z,6.28
2023-01-09T16:54:17.547Z,6.25
2023-01-09T16:56:48.708Z,6.22
2023-01-09T16:59:21.109Z,6.21
2023-01-09T17:01:49.549Z,6.18
2023-01-09T17:04:20.183Z,6.13
2023-01-09T17:06:50.496Z,6.08
2023-01-09T17:09:25.833Z,6.04
2023-01-09T17:11:55.222Z,6.01
2023-01-09T17:14:24.552Z,5.95
2023-01-09T17:16:52.618Z,5.97
2023-01-09T17:19:21.333Z,5.93
2023-01-09T17:21:50.970Z,6.11
2023-01-09T17:24:38.446Z,6.24
2023-01-09T17:27:24.504Z,6.17
2023-01-09T17:29:54.174Z,6.15
2023-01-09T17:32:22.403Z,6.14
2023-01-09T17:34:50.409Z,6.14
2023-01-09T17:37:21.042Z,6.14
2023-01-09T17:39:49.565Z,6.08
2023-01-09T17:42:17.754Z,6.03
2023-01-09T17:44:45.916Z,5.98
2023-01-09T17:47:16.449Z,5.91
2023-01-09T17:49:44.870Z,5.89
2023-01-09T17:52:13.249Z,5.86
2023-01-09T17:54:43.373Z,5.83
2023-01-09T17:57:18.663Z,5.82
2023-01-09T17:59:47.125Z,5.78
2023-01-09T18:02:20.405Z,5.77
2023-01-09T18:04:50.625Z,5.82
2023-01-09T18:07:22.326Z,5.78
2023-01-09T18:09:51.687Z,5.77
2023-01-09T18:12:21.273Z,5.77
2023-01-09T18:14:52.320Z,5.82
2023-01-09T18:17:22.460Z,5.89
2023-01-09T18:19:51.281Z,5.91
2023-01-09T18:22:23.235Z,5.93
2023-01-09T18:24:52.706Z,5.95
2023-01-09T18:27:20.998Z,6.03
2023-01-09T18:29:51.157Z,6.05
2023-01-09T18:32:22.059Z,6.10
2023-01-09T18:34:50.824Z,6.20
2023-01-09T18:37:18.997Z,6.24
2023-01-09T18:39:47.847Z,6.28
2023-01-09T18:42:18.408Z,6.34
2023-01-09T18:44:48.461Z,6.42
2023-01-09T18:47:16.525Z,6.48
2023-01-09T18:49:44.569Z,6.63
2023-01-09T18:52:15.854Z,6.87
2023-01-09T18:54:45.614Z,6.82
2023-01-09T18:57:14.409Z,6.80
2023-01-09T18:59:45.204Z,6.79
2023-01-09T19:02:20.438Z,6.79
2023-01-09T19:04:49.403Z,6.77
2023-01-09T19:07:21.215Z,6.76
2023-01-09T19:09:49.661Z,6.80
2023-01-09T19:12:19.911Z,6.80
2023-01-09T19:14:49.951Z,6.82
2023-01-09T19:17:18.316Z,6.80
2023-01-09T19:19:46.778Z,6.77
2023-01-09T19:22:15.296Z,6.76
2023-01-09T19:24:43.915Z,6.79
2023-01-09T19:27:14.028Z,6.76
2023-01-09T19:29:43.083Z,6.76
2023-01-09T19:32:13.889Z,6.76
2023-01-09T19:34:42.240Z,6.80
2023-01-09T19:37:10.838Z,6.80
2023-01-09T19:39:39.558Z,6.80
2023-01-09T19:42:09.123Z,6.83
2023-01-09T19:44:39.493Z,6.80
2023-01-09T19:47:08.423Z,6.83
2023-01-09T19:49:39.852Z,6.83
2023-01-09T19:52:08.309Z,6.82
2023-01-09T19:54:37.729Z,6.83
2023-01-09T19:57:05.859Z,6.83
2023-01-09T19:59:36.193Z,6.84
2023-01-09T20:02:05.894Z,6.82
2023-01-09T20:04:35.344Z,6.82
2023-01-09T20:07:05.070Z,6.83
2023-01-09T20:09:33.511Z,6.82
2023-01-09T20:12:02.707Z,6.84
2023-01-09T20:14:30.789Z,6.87
2023-01-09T20:17:01.077Z,6.90
2023-01-09T20:19:32.595Z,6.90
2023-01-09T20:22:01.033Z,6.89
2023-01-09T20:24:30.486Z,6.92
2023-01-09T20:26:58.651Z,6.93
2023-01-09T20:29:26.926Z,6.94
2023-01-09T20:31:56.419Z,6.90
2023-01-09T20:34:26.707Z,6.83
2023-01-09T20:36:55.977Z,6.80
2023-01-09T20:39:24.272Z,6.72
2023-01-09T20:41:53.814Z,6.69
2023-01-09T20:44:22.781Z,6.62
2023-01-09T20:46:53.557Z,6.61
2023-01-09T20:49:22.952Z,6.57
2023-01-09T20:51:53.256Z,6.53
2023-01-09T20:54:22.850Z,6.48
2023-01-09T20:56:53.563Z,6.45
2023-01-09T20:59:22.904Z,6.45
2023-01-09T21:01:51.442Z,6.39
2023-01-09T21:04:19.721Z,6.41
2023-01-09T21:06:49.978Z,6.48
2023-01-09T21:09:18.597Z,6.50
2023-01-09T21:11:46.927Z,6.52
2023-01-09T21:14:16.308Z,6.52
2023-01-09T21:16:53.821Z,6.55
2023-01-09T21:19:23.350Z,6.52
2023-01-09T21:21:53.257Z,6.53
2023-01-09T21:24:21.928Z,6.55
2023-01-09T21:26:49.942Z,6.49
2023-01-09T21:29:19.626Z,6.49
2023-01-09T21:31:48.305Z,6.45
2023-01-09T21:34:20.137Z,6.45
2023-01-09T21:36:49.058Z,6.42
2023-01-09T21:39:17.726Z,6.41
2023-01-09T21:42:03.232Z,6.42
2023-01-09T21:44:50.293Z,6.42
2023-01-09T21:47:18.354Z,6.42
2023-01-09T21:49:47.113Z,6.42
2023-01-09T21:52:18.292Z,6.41
2023-01-09T21:54:46.847Z,6.41
2023-01-09T21:57:14.895Z,6.38
2023-01-09T21:59:45.832Z,6.36
2023-01-09T22:02:15.764Z,6.35
2023-01-09T22:04:48.487Z,6.35
2023-01-09T22:07:18.292Z,6.34
2023-01-09T22:09:46.431Z,6.35
2023-01-09T22:12:14.783Z,6.35
2023-01-09T22:14:44.469Z,6.34
2023-01-09T22:17:12.687Z,6.35
2023-01-09T22:19:40.876Z,6.34
2023-01-09T22:22:09.968Z,6.34
2023-01-09T22:24:38.211Z,6.32
2023-01-09T22:27:06.305Z,6.28
2023-01-09T22:29:34.801Z,6.29
2023-01-09T22:32:04.739Z,6.28
2023-01-09T22:34:32.839Z,6.29
2023-01-09T22:37:01.213Z,6.26
2023-01-09T22:39:32.103Z,6.29
2023-01-09T22:42:02.327Z,6.26
2023-01-09T22:44:30.647Z,6.26
2023-01-09T22:46:59.181Z,6.25
2023-01-09T22:49:33.450Z,6.24
2023-01-09T22:52:09.220Z,6.25
2023-01-09T22:54:37.369Z,6.25
2023-01-09T22:57:05.728Z,6.24
2023-01-09T22:59:33.787Z,6.22
2023-01-09T23:02:02.135Z,6.24
2023-01-09T23:04:31.527Z,6.21
2023-01-09T23:06:59.546Z,6.24
2023-01-09T23:09:27.878Z,6.21
2023-01-09T23:12:08.625Z,6.18
2023-01-09T23:14:40.975Z,6.21
2023-01-09T23:17:09.748Z,6.20
2023-01-09T23:19:40.471Z,6.18
2023-01-09T23:22:08.974Z,6.18
2023-01-09T23:24:37.059Z,6.20
2023-01-09T23:27:05.576Z,6.18
2023-01-09T23:29:33.738Z,6.18
2023-01-09T23:32:07.441Z,6.18
2023-01-09T23:34:35.654Z,6.18
2023-01-09T23:37:08.930Z,6.20
2023-01-09T23:39:37.005Z,6.22
2023-01-09T23:42:37.341Z,6.22
2023-01-09T23:45:06.276Z,6.25
2023-01-09T23:47:34.763Z,6.24
2023-01-09T23:50:03.980Z,6.25
2023-01-09T23:52:33.883Z,6.25
2023-01-09T23:55:02.071Z,6.25
2023-01-09T23:57:30.822Z,6.26
2023-01-09T23:59:59.358Z,6.28
